createdAt,value
2019-04-06T00:01:51.512Z,19.30
2019-04-06T00:04:22.194Z,20.37
2019-04-06T00:06:52.605Z,19.73
2019-04-06T00:09:22.444Z,18.63
2019-04-06T00:11:51.051Z,20.00
2019-04-06T00:14:18.550Z,19.27
2019-04-06T00:16:46.050Z,18.40
2019-04-06T00:19:13.707Z,19.47
2019-04-06T00:21:41.247Z,18.43
2019-04-06T00:24:08.791Z,18.27
2019-04-06T00:26:37.766Z,18.57
2019-04-06T00:29:14.224Z,17.87
2019-04-06T00:32:17.319Z,19.47
2019-04-06T00:34:45.188Z,18.97
2019-04-06T00:37:13.017Z,19.10
2019-04-06T00:39:42.063Z,18.63
2019-04-06T00:42:09.590Z,18.87
2019-04-06T00:44:38.917Z,19.53
2019-04-06T00:47:07.754Z,18.00
2019-04-06T00:49:46.301Z,17.33
2019-04-06T00:52:14.666Z,17.77
2019-04-06T00:54:43.236Z,19.30
2019-04-06T00:57:12.921Z,18.93
2019-04-06T00:59:44.389Z,19.27
2019-04-06T01:02:18.872Z,19.57
2019-04-06T01:04:46.442Z,16.73
2019-04-06T01:07:14.034Z,19.17
2019-04-06T01:09:41.550Z,18.77
2019-04-06T01:12:09.317Z,18.50
2019-04-06T01:14:44.940Z,18.23
2019-04-06T01:17:14.488Z,20.10
2019-04-06T01:19:46.908Z,18.70
2019-04-06T01:22:18.862Z,19.77
2019-04-06T01:24:46.344Z,18.67
2019-04-06T01:27:21.767Z,17.70
2019-04-06T01:29:52.304Z,20.63
2019-04-06T01:32:23.010Z,17.73
2019-04-06T01:34:50.674Z,19.63
2019-04-06T01:37:21.227Z,18.17
2019-04-06T01:39:52.392Z,17.30
2019-04-06T01:42:24.260Z,19.13
2019-04-06T01:44:52.979Z,18.47
2019-04-06T01:47:20.609Z,18.90
2019-04-06T01:49:48.087Z,17.87
2019-04-06T01:52:20.110Z,19.60
2019-04-06T01:54:47.605Z,20.07
2019-04-06T01:57:15.529Z,18.70
2019-04-06T01:59:45.262Z,19.10
2019-04-06T02:02:22.586Z,17.77
2019-04-06T02:04:52.466Z,19.43
2019-04-06T02:07:26.660Z,15.43
2019-04-06T02:10:01.278Z,19.97
2019-04-06T02:12:29.334Z,16.87
2019-04-06T02:15:03.210Z,19.23
2019-04-06T02:17:35.605Z,18.47
2019-04-06T02:20:03.416Z,17.97
2019-04-06T02:22:32.114Z,17.80
2019-04-06T02:25:02.397Z,20.10
2019-04-06T02:27:34.468Z,17.90
2019-04-06T02:30:21.811Z,19.73
2019-04-06T02:33:16.705Z,20.03
2019-04-06T02:36:12.010Z,19.50
2019-04-06T02:38:51.313Z,18.23
2019-04-06T02:41:36.718Z,19.90
2019-04-06T02:44:07.173Z,18.57
2019-04-06T02:46:37.690Z,17.73
2019-04-06T02:49:09.295Z,17.37
2019-04-06T02:51:38.465Z,17.23
2019-04-06T02:54:11.536Z,18.90
2019-04-06T02:56:46.299Z,18.57
2019-04-06T02:59:10.427Z,18.70
2019-04-06T03:01:43.219Z,19.50
2019-04-06T03:04:14.011Z,19.00
2019-04-06T03:06:43.504Z,17.67
2019-04-06T03:09:14.916Z,19.30
2019-04-06T03:11:48.027Z,17.93
2019-04-06T03:14:18.099Z,17.93
2019-04-06T03:16:45.581Z,18.50
2019-04-06T03:19:17.993Z,19.13
2019-04-06T03:21:47.500Z,18.57
2019-04-06T03:24:16.580Z,18.80
2019-04-06T03:26:44.127Z,17.27
2019-04-06T03:29:11.605Z,17.33
2019-04-06T03:31:39.365Z,19.57
2019-04-06T03:34:07.443Z,19.30
2019-04-06T03:36:45.424Z,18.20
2019-04-06T03:39:15.077Z,17.90
2019-04-06T03:41:47.406Z,18.47
2019-04-06T03:44:14.948Z,19.40
2019-04-06T03:46:43.646Z,19.67
2019-04-06T03:49:14.709Z,17.57
2019-04-06T03:51:44.633Z,18.87
2019-04-06T03:54:12.475Z,19.07
2019-04-06T03:56:44.724Z,17.97
2019-04-06T03:59:13.032Z,18.33
2019-04-06T04:01:43.038Z,17.60
2019-04-06T04:04:22.750Z,18.73
2019-04-06T04:06:52.302Z,17.20
2019-04-06T04:09:20.211Z,18.00
2019-04-06T04:11:53.294Z,17.97
2019-04-06T04:14:23.225Z,19.83
2019-04-06T04:16:53.492Z,19.40
2019-04-06T04:19:25.471Z,17.53
2019-04-06T04:21:53.271Z,18.40
2019-04-06T04:24:21.772Z,17.53
2019-04-06T04:26:49.632Z,18.37
2019-04-06T04:29:20.884Z,16.33
2019-04-06T04:31:53.827Z,19.77
2019-04-06T04:34:22.469Z,17.83
2019-04-06T04:36:50.867Z,19.07
2019-04-06T04:39:23.218Z,17.03
2019-04-06T04:41:50.809Z,17.63
2019-04-06T04:44:23.252Z,17.97
2019-04-06T04:46:54.576Z,17.80
2019-04-06T04:49:23.682Z,16.60
2019-04-06T04:51:54.013Z,17.00
2019-04-06T04:54:21.451Z,17.83
2019-04-06T04:56:51.865Z,18.00
2019-04-06T04:59:23.452Z,18.73
2019-04-06T05:01:53.702Z,18.83
2019-04-06T05:04:21.135Z,18.03
2019-04-06T05:06:48.573Z,16.93
2019-04-06T05:09:21.183Z,17.67
2019-04-06T05:11:50.690Z,18.23
2019-04-06T05:14:57.690Z,17.77
2019-04-06T05:17:25.706Z,18.63
2019-04-06T05:19:53.425Z,18.67
2019-04-06T05:22:23.878Z,17.53
2019-04-06T05:24:51.441Z,17.40
2019-04-06T05:27:18.933Z,15.87
2019-04-06T05:29:46.244Z,16.87
2019-04-06T05:32:15.858Z,18.57
2019-04-06T05:34:45.385Z,16.23
2019-04-06T05:37:19.836Z,17.43
2019-04-06T05:39:49.957Z,17.43
2019-04-06T05:42:20.114Z,17.47
2019-04-06T05:44:53.219Z,19.23
2019-04-06T05:47:21.893Z,16.03
2019-04-06T05:49:53.312Z,17.57
2019-04-06T05:52:21.772Z,16.70
2019-04-06T05:55:02.903Z,17.10
2019-04-06T05:57:32.110Z,18.33
2019-04-06T06:00:00.980Z,17.70
2019-04-06T06:02:28.477Z,18.20
2019-04-06T06:05:00.604Z,17.90
2019-04-06T06:07:29.876Z,17.77
2019-04-06T06:09:57.436Z,18.73
2019-04-06T06:12:25.003Z,17.27
2019-04-06T06:14:55.270Z,18.87
2019-04-06T06:17:23.023Z,18.60
2019-04-06T06:19:50.737Z,17.37
2019-04-06T06:22:22.442Z,20.10
2019-04-06T06:24:52.409Z,19.53
2019-04-06T06:27:20.068Z,18.33
2019-04-06T06:29:50.607Z,18.57
2019-04-06T06:32:19.717Z,19.07
2019-04-06T06:34:49.372Z,19.43
2019-04-06T06:37:19.588Z,17.03
2019-04-06T06:39:51.347Z,19.63
2019-04-06T06:42:18.776Z,18.53
2019-04-06T06:44:46.083Z,18.47
2019-04-06T06:47:15.488Z,18.07
2019-04-06T06:49:42.852Z,18.57
2019-04-06T06:52:10.346Z,18.47
2019-04-06T06:54:38.142Z,19.03
2019-04-06T06:57:13.013Z,18.07
2019-04-06T06:59:40.464Z,19.10
2019-04-06T07:02:07.870Z,20.33
2019-04-06T07:04:35.327Z,18.93
2019-04-06T07:07:02.854Z,17.77
2019-04-06T07:09:30.224Z,19.13
2019-04-06T07:12:03.315Z,20.40
2019-04-06T07:14:40.986Z,20.30
2019-04-06T07:17:19.198Z,17.30
2019-04-06T07:19:57.158Z,19.33
2019-04-06T07:22:27.589Z,19.70
2019-04-06T07:25:00.399Z,18.67
2019-04-06T07:27:27.900Z,18.67
2019-04-06T07:29:57.725Z,19.70
2019-04-06T07:32:26.016Z,20.03
2019-04-06T07:34:55.852Z,18.40
2019-04-06T07:37:25.815Z,19.63
2019-04-06T07:39:59.294Z,17.53
2019-04-06T07:42:29.668Z,19.03
2019-04-06T07:44:57.603Z,19.10
2019-04-06T07:47:25.764Z,18.50
2019-04-06T07:49:53.409Z,19.13
2019-04-06T07:52:21.954Z,20.00
2019-04-06T07:54:50.880Z,19.13
2019-04-06T07:57:18.578Z,18.73
2019-04-06T07:59:46.216Z,19.30
2019-04-06T08:02:13.625Z,18.37
2019-04-06T08:04:46.241Z,19.63
2019-04-06T08:07:16.766Z,18.83
2019-04-06T08:09:46.862Z,18.53
2019-04-06T08:12:14.226Z,19.00
2019-04-06T08:14:41.702Z,19.33
2019-04-06T08:17:09.210Z,18.53
2019-04-06T08:19:36.646Z,17.73
2019-04-06T08:22:04.246Z,18.10
2019-04-06T08:24:31.718Z,18.90
2019-04-06T08:26:59.457Z,18.30
2019-04-06T08:29:28.679Z,18.60
2019-04-06T08:31:56.150Z,19.30
2019-04-06T08:34:23.761Z,18.40
2019-04-06T08:36:53.545Z,17.57
2019-04-06T08:39:25.687Z,16.90
2019-04-06T08:41:56.707Z,17.27
2019-04-06T08:44:24.064Z,17.30
2019-04-06T08:46:54.572Z,16.40
2019-04-06T08:49:26.004Z,17.07
2019-04-06T08:51:53.452Z,17.77
2019-04-06T08:54:24.068Z,18.10
2019-04-06T08:56:51.751Z,16.57
2019-04-06T08:59:19.220Z,17.17
2019-04-06T09:01:51.096Z,16.50
2019-04-06T09:04:18.690Z,16.97
2019-04-06T09:06:48.281Z,17.43
2019-04-06T09:09:16.406Z,16.70
2019-04-06T09:11:43.830Z,16.13
2019-04-06T09:14:12.016Z,16.47
2019-04-06T09:16:39.466Z,16.73
2019-04-06T09:19:08.249Z,15.00
2019-04-06T09:21:35.552Z,16.60
2019-04-06T09:24:03.059Z,14.17
2019-04-06T09:26:31.178Z,14.70
2019-04-06T09:28:59.692Z,15.07
2019-04-06T09:31:30.818Z,14.40
2019-04-06T09:33:58.473Z,14.63
2019-04-06T09:36:32.914Z,13.77
2019-04-06T09:39:02.751Z,12.97
2019-04-06T09:41:32.420Z,12.30
2019-04-06T09:44:01.982Z,11.10
2019-04-06T09:46:54.608Z,11.60
2019-04-06T09:49:42.893Z,13.03
2019-04-06T09:52:30.140Z,12.10
2019-04-06T09:55:16.533Z,13.20
2019-04-06T09:58:02.087Z,12.27
2019-04-06T10:00:36.495Z,13.07
2019-04-06T10:03:21.977Z,13.53
2019-04-06T10:06:22.521Z,12.77
2019-04-06T10:09:01.704Z,12.43
2019-04-06T10:11:56.294Z,12.33
2019-04-06T10:15:01.557Z,13.17
2019-04-06T10:17:59.287Z,13.43
2019-04-06T10:21:07.745Z,13.17
2019-04-06T10:23:56.538Z,13.80
2019-04-06T10:26:42.170Z,13.37
2019-04-06T10:29:28.512Z,12.77
2019-04-06T10:32:32.187Z,13.13
2019-04-06T10:35:06.035Z,12.23
2019-04-06T10:38:04.324Z,12.23
2019-04-06T10:40:47.875Z,13.03
2019-04-06T10:43:28.856Z,12.87
2019-04-06T10:46:14.467Z,12.77
2019-04-06T10:49:00.210Z,11.83
2019-04-06T10:51:51.687Z,11.77
2019-04-06T10:54:33.320Z,11.23
2019-04-06T10:57:29.442Z,10.63
2019-04-06T11:00:05.388Z,12.57
2019-04-06T11:02:50.734Z,11.63
2019-04-06T11:05:29.379Z,13.57
2019-04-06T11:08:17.286Z,12.27
2019-04-06T11:11:06.666Z,12.53
2019-04-06T11:14:02.990Z,12.18
2019-04-06T11:16:48.352Z,10.60
2019-04-06T11:19:29.619Z,11.93
2019-04-06T11:22:13.501Z,11.63
2019-04-06T11:25:07.364Z,10.85
2019-04-06T11:27:59.659Z,10.27
2019-04-06T11:30:39.653Z,10.90
2019-04-06T11:33:26.726Z,11.70
2019-04-06T11:36:22.141Z,10.93
2019-04-06T11:39:07.417Z,10.20
2019-04-06T11:41:57.610Z,10.97
2019-04-06T11:44:43.261Z,10.60
2019-04-06T11:47:42.576Z,10.33
2019-04-06T11:50:25.685Z,10.00
2019-04-06T11:53:14.906Z,10.30
2019-04-06T11:56:03.216Z,10.33
2019-04-06T11:58:48.811Z,9.03
2019-04-06T12:01:44.483Z,10.17
2019-04-06T12:04:30.441Z,9.87
2019-04-06T12:07:19.537Z,8.70
2019-04-06T12:10:15.858Z,8.77
2019-04-06T12:13:05.760Z,8.97
2019-04-06T12:16:10.796Z,9.57
2019-04-06T12:18:46.985Z,8.83
2019-04-06T12:21:38.741Z,8.10
2019-04-06T12:24:26.411Z,10.43
2019-04-06T12:27:22.272Z,9.10
2019-04-06T12:29:58.547Z,9.77
2019-04-06T12:32:44.454Z,9.83
2019-04-06T12:35:24.165Z,8.67
2019-04-06T12:37:58.353Z,8.53
2019-04-06T12:40:42.370Z,9.60
2019-04-06T12:43:38.939Z,9.80
2019-04-06T12:46:25.904Z,9.10
2019-04-06T12:49:16.715Z,8.33
2019-04-06T12:52:03.930Z,10.07
2019-04-06T12:54:54.700Z,9.80
2019-04-06T12:57:31.937Z,10.07
2019-04-06T13:00:15.134Z,10.03
2019-04-06T13:02:54.433Z,10.70
2019-04-06T13:05:31.184Z,8.60
2019-04-06T13:08:36.392Z,9.30
2019-04-06T13:11:32.398Z,9.20
2019-04-06T13:14:05.654Z,8.37
2019-04-06T13:16:54.172Z,9.23
2019-04-06T13:19:41.213Z,9.43
2019-04-06T13:22:26.337Z,9.07
2019-04-06T13:25:15.085Z,10.03
2019-04-06T13:27:59.460Z,9.27
2019-04-06T13:30:38.620Z,9.90
2019-04-06T13:33:35.851Z,9.70
2019-04-06T13:36:27.266Z,9.10
2019-04-06T13:39:12.908Z,10.20
2019-04-06T13:42:02.396Z,9.80
2019-04-06T13:44:49.298Z,9.53
2019-04-06T13:48:01.447Z,9.90
2019-04-06T13:50:46.759Z,9.30
2019-04-06T13:53:36.150Z,9.50
2019-04-06T13:56:27.153Z,9.47
2019-04-06T13:59:10.190Z,9.57
2019-04-06T14:01:58.447Z,9.33
2019-04-06T14:04:50.439Z,9.60
2019-04-06T14:07:28.843Z,9.40
2019-04-06T14:10:26.031Z,9.30
2019-04-06T14:13:30.533Z,9.98
2019-04-06T14:16:30.245Z,9.05
2019-04-06T14:19:17.744Z,8.68
2019-04-06T14:22:02.387Z,9.30
2019-04-06T14:25:04.725Z,8.88
2019-04-06T14:27:55.042Z,8.50
2019-04-06T14:30:46.074Z,8.30
2019-04-06T14:33:44.291Z,8.23
2019-04-06T14:36:29.001Z,7.92
2019-04-06T14:39:13.750Z,8.73
2019-04-06T14:42:15.874Z,8.90
2019-04-06T14:45:01.626Z,8.45
2019-04-06T14:47:54.965Z,8.73
2019-04-06T14:50:46.194Z,9.28
2019-04-06T14:53:35.655Z,8.65
2019-04-06T14:56:40.766Z,7.85
2019-04-06T14:59:39.886Z,8.03
2019-04-06T15:02:30.271Z,8.35
2019-04-06T15:05:15.790Z,9.05
2019-04-06T15:07:53.453Z,8.05
2019-04-06T15:10:34.884Z,8.93
2019-04-06T15:13:28.024Z,7.97
2019-04-06T15:16:26.897Z,9.30
2019-04-06T15:19:12.579Z,9.20
2019-04-06T15:21:59.536Z,8.80
2019-04-06T15:24:55.062Z,8.43
2019-04-06T15:27:57.375Z,8.57
2019-04-06T15:30:42.951Z,9.17
2019-04-06T15:33:34.711Z,7.80
2019-04-06T15:36:19.974Z,9.07
2019-04-06T15:39:05.744Z,7.53
2019-04-06T15:41:42.303Z,8.13
2019-04-06T15:44:39.095Z,8.93
2019-04-06T15:47:19.925Z,9.23
2019-04-06T15:50:05.720Z,9.37
2019-04-06T15:52:57.194Z,9.27
2019-04-06T15:55:45.484Z,8.40
2019-04-06T15:58:18.826Z,8.60
2019-04-06T16:01:17.787Z,8.90
2019-04-06T16:04:07.661Z,9.03
2019-04-06T16:06:47.838Z,8.60
2019-04-06T16:09:44.364Z,9.03
2019-04-06T16:12:33.971Z,8.90
2019-04-06T16:15:19.616Z,9.50
2019-04-06T16:18:07.206Z,9.40
2019-04-06T16:20:41.589Z,9.60
2019-04-06T16:23:19.914Z,9.40
2019-04-06T16:26:11.129Z,9.20
2019-04-06T16:28:56.830Z,10.10
2019-04-06T16:31:34.269Z,8.87
2019-04-06T16:34:31.603Z,9.17
2019-04-06T16:37:19.266Z,8.93
2019-04-06T16:40:06.166Z,9.57
2019-04-06T16:42:58.771Z,9.83
2019-04-06T16:46:01.175Z,9.07
2019-04-06T16:48:38.870Z,10.63
2019-04-06T16:51:24.677Z,10.00
2019-04-06T16:54:01.818Z,10.73
2019-04-06T16:56:51.890Z,10.30
2019-04-06T16:59:46.810Z,11.47
2019-04-06T17:02:33.999Z,11.53
2019-04-06T17:05:12.450Z,13.10
2019-04-06T17:08:10.776Z,11.97
2019-04-06T17:10:49.510Z,16.00
2019-04-06T17:13:45.523Z,12.83
2019-04-06T17:16:40.925Z,13.40
2019-04-06T17:19:42.592Z,16.00
2019-04-06T17:22:23.491Z,14.47
2019-04-06T17:25:09.156Z,12.67
2019-04-06T17:27:47.514Z,12.47
2019-04-06T17:30:31.880Z,10.30
2019-04-06T17:33:19.787Z,10.33
2019-04-06T17:36:04.161Z,9.30
2019-04-06T17:38:40.678Z,9.43
2019-04-06T17:41:30.541Z,9.63
2019-04-06T17:44:11.682Z,9.40
2019-04-06T17:47:11.079Z,9.53
2019-04-06T17:49:58.493Z,11.30
2019-04-06T17:53:00.617Z,11.73
2019-04-06T17:55:47.534Z,9.13
2019-04-06T17:58:44.344Z,10.33
2019-04-06T18:01:37.382Z,9.67
2019-04-06T18:04:26.445Z,10.10
2019-04-06T18:07:20.660Z,10.60
2019-04-06T18:09:56.874Z,11.23
2019-04-06T18:12:45.185Z,10.77
2019-04-06T18:15:14.277Z,12.17
2019-04-06T18:17:43.863Z,10.13
2019-04-06T18:20:12.888Z,11.97
2019-04-06T18:22:40.412Z,10.40
2019-04-06T18:25:09.224Z,10.90
2019-04-06T18:27:36.602Z,10.63
2019-04-06T18:30:06.691Z,13.07
2019-04-06T18:32:39.782Z,11.60
2019-04-06T18:35:11.102Z,11.43
2019-04-06T18:38:05.190Z,11.43
2019-04-06T18:40:37.012Z,11.17
2019-04-06T18:43:05.147Z,12.63
2019-04-06T18:45:35.960Z,13.23
2019-04-06T18:48:04.448Z,14.33
2019-04-06T18:50:36.092Z,18.23
2019-04-06T18:53:02.196Z,15.50
2019-04-06T18:55:30.043Z,15.27
2019-04-06T18:58:08.825Z,12.73
2019-04-06T19:00:34.662Z,13.40
2019-04-06T19:03:12.490Z,12.97
2019-04-06T19:05:34.591Z,14.33
2019-04-06T19:08:03.178Z,14.77
2019-04-06T19:10:30.525Z,11.87
2019-04-06T19:13:03.570Z,13.03
2019-04-06T19:15:33.186Z,13.37
2019-04-06T19:18:00.421Z,13.00
2019-04-06T19:20:33.437Z,13.13
2019-04-06T19:23:00.786Z,13.87
2019-04-06T19:25:28.604Z,12.77
2019-04-06T19:27:56.378Z,13.27
2019-04-06T19:30:24.899Z,12.73
2019-04-06T19:32:56.919Z,13.37
2019-04-06T19:35:26.589Z,11.77
2019-04-06T19:37:56.887Z,13.03
2019-04-06T19:40:26.031Z,12.13
2019-04-06T19:42:53.765Z,13.23
2019-04-06T19:45:28.213Z,12.90
2019-04-06T19:47:57.521Z,14.33
2019-04-06T19:50:24.996Z,13.33
2019-04-06T19:52:54.382Z,12.80
2019-04-06T19:55:21.645Z,13.20
2019-04-06T19:57:53.598Z,13.47
2019-04-06T20:00:23.734Z,12.77
2019-04-06T20:02:51.044Z,13.33
2019-04-06T20:05:18.964Z,12.33
2019-04-06T20:07:50.192Z,13.10
2019-04-06T20:10:19.778Z,13.83
2019-04-06T20:12:50.373Z,14.17
2019-04-06T20:15:18.570Z,13.67
2019-04-06T20:17:46.298Z,15.47
2019-04-06T20:20:15.927Z,13.47
2019-04-06T20:22:49.206Z,15.00
2019-04-06T20:25:17.641Z,14.10
2019-04-06T20:27:45.148Z,12.77
2019-04-06T20:30:12.732Z,13.80
2019-04-06T20:32:40.540Z,14.37
2019-04-06T20:35:09.283Z,15.53
2019-04-06T20:37:37.535Z,14.00
2019-04-06T20:40:06.715Z,14.70
2019-04-06T20:42:37.056Z,15.90
2019-04-06T20:45:13.530Z,14.97
2019-04-06T20:47:44.088Z,14.13
2019-04-06T20:50:13.410Z,15.60
2019-04-06T20:52:41.621Z,15.23
2019-04-06T20:55:09.211Z,15.77
2019-04-06T20:57:38.692Z,16.37
2019-04-06T21:00:07.399Z,16.20
2019-04-06T21:02:37.698Z,15.30
2019-04-06T21:05:08.115Z,16.83
2019-04-06T21:07:52.021Z,16.27
2019-04-06T21:10:21.338Z,16.83
2019-04-06T21:12:55.340Z,17.03
2019-04-06T21:15:23.096Z,16.23
2019-04-06T21:17:51.047Z,16.97
2019-04-06T21:20:23.259Z,15.23
2019-04-06T21:23:00.145Z,16.33
2019-04-06T21:25:27.622Z,17.17
2019-04-06T21:27:58.999Z,18.30
2019-04-06T21:30:28.712Z,17.53
2019-04-06T21:32:56.933Z,17.27
2019-04-06T21:35:24.740Z,16.40
2019-04-06T21:37:54.997Z,18.07
2019-04-06T21:40:29.216Z,17.13
2019-04-06T21:42:58.942Z,17.83
2019-04-06T21:45:29.863Z,16.60
2019-04-06T21:47:57.540Z,16.20
2019-04-06T21:50:27.574Z,18.13
2019-04-06T21:52:55.802Z,17.10
2019-04-06T21:55:26.298Z,18.00
2019-04-06T21:57:54.198Z,17.30
2019-04-06T22:00:38.424Z,17.63
2019-04-06T22:03:06.132Z,17.27
2019-04-06T22:05:35.217Z,17.47
2019-04-06T22:08:07.252Z,18.00
2019-04-06T22:10:38.992Z,18.70
2019-04-06T22:13:06.982Z,17.50
2019-04-06T22:15:34.883Z,17.40
2019-04-06T22:18:02.415Z,17.43
2019-04-06T22:20:30.066Z,16.60
2019-04-06T22:22:57.426Z,18.30
2019-04-06T22:25:27.888Z,16.73
2019-04-06T22:27:55.272Z,18.43
2019-04-06T22:30:22.840Z,17.67
2019-04-06T22:32:53.980Z,19.00
2019-04-06T22:35:28.414Z,17.77
2019-04-06T22:37:56.247Z,17.90
2019-04-06T22:40:23.649Z,15.80
2019-04-06T22:42:51.483Z,16.70
2019-04-06T22:45:21.438Z,18.37
2019-04-06T22:47:51.847Z,17.77
2019-04-06T22:50:19.910Z,18.87
2019-04-06T22:52:50.436Z,19.17
2019-04-06T22:55:18.045Z,18.97
2019-04-06T22:57:45.498Z,19.80
2019-04-06T23:00:22.979Z,18.77
2019-04-06T23:03:15.951Z,19.90
2019-04-06T23:05:47.157Z,19.07
2019-04-06T23:08:14.927Z,18.93
2019-04-06T23:10:42.493Z,19.00
2019-04-06T23:13:17.779Z,20.07
2019-04-06T23:15:52.893Z,21.07
2019-04-06T23:18:20.880Z,19.63
2019-04-06T23:20:52.859Z,20.67
2019-04-06T23:23:20.913Z,19.83
2019-04-06T23:25:52.906Z,19.17
2019-04-06T23:28:22.682Z,21.97
2019-04-06T23:30:57.094Z,22.80
2019-04-06T23:33:24.651Z,21.20
2019-04-06T23:35:52.091Z,20.97
2019-04-06T23:38:21.873Z,19.30
2019-04-06T23:40:54.991Z,22.13
2019-04-06T23:43:25.833Z,21.00
2019-04-06T23:45:53.697Z,20.33
2019-04-06T23:48:26.840Z,21.77
2019-04-06T23:50:57.379Z,21.23
2019-04-06T23:53:34.933Z,21.57
2019-04-06T23:56:05.175Z,21.17
2019-04-06T23:58:36.315Z,21.40
